Time;durP1;ratioP1;P1;durP2;ratioP2;P2;SDS_P1;SDS_P2;PMS_P1;PMS_P2;Temp;Humidity;BMP_temperature;BMP_pressure;BME280_temperature;BME280_humidity;BME280_pressure;Samples;Min_cycle;Max_cycle;Signal;HPM_P1;HPM_P2
2022/08/12 00:44:59;;;;;;;14.82;4.45;;;29.50;99.90;;;;;;4973327;28;20052;-49
2022/08/12 00:47:25;;;;;;;9.75;4.45;;;29.50;99.90;;;;;;4973038;28;20057;-49
2022/08/12 00:49:54;;;;;;;16.80;5.20;;;29.50;99.90;;;;;;4972388;28;20027;-49
2022/08/12 00:52:21;;;;;;;11.30;4.07;;;29.50;99.90;;;;;;4972878;28;20093;-49
2022/08/12 00:54:53;;;;;;;10.20;4.45;;;29.50;99.90;;;;;;4987839;28;20389;-49
2022/08/12 00:57:21;;;;;;;12.05;4.47;;;29.50;99.90;;;;;;4972752;28;20030;-49
2022/08/12 00:59:53;;;;;;;10.63;4.55;;;29.50;99.90;;;;;;4973252;28;20101;-50
2022/08/12 01:02:31;;;;;;;12.13;4.43;;;29.40;99.90;;;;;;4972774;28;20039;-49
2022/08/12 01:13:17;;;;;;;;;;;29.30;99.90;;;;;;4973349;28;20530;-49
2022/08/12 01:15:50;;;;;;;15.43;4.70;;;29.30;99.90;;;;;;4972779;28;19926;-49
2022/08/12 01:18:21;;;;;;;12.93;4.60;;;29.30;99.90;;;;;;4972621;28;20023;-48
2022/08/12 01:21:05;;;;;;;11.25;3.95;;;29.30;99.90;;;;;;4972611;28;20034;-49
2022/08/12 01:23:55;;;;;;;12.40;4.55;;;29.30;99.90;;;;;;4972702;28;20022;-49
2022/08/12 01:26:23;;;;;;;12.55;5.15;;;29.30;99.90;;;;;;4972441;28;20038;-49
2022/08/12 01:28:54;;;;;;;9.15;4.88;;;29.20;99.90;;;;;;4972181;28;20023;-49
2022/08/12 01:31:20;;;;;;;14.32;5.07;;;29.20;99.90;;;;;;4972506;28;20031;-49
2022/08/12 01:34:03;;;;;;;16.40;4.73;;;29.20;99.90;;;;;;4972367;28;20387;-48
2022/08/12 01:36:43;;;;;;;13.65;5.50;;;29.10;99.90;;;;;;4972623;28;20038;-48
2022/08/12 01:39:09;;;;;;;11.43;4.68;;;29.10;99.90;;;;;;4972334;28;20479;-48
2022/08/12 01:41:39;;;;;;;13.77;4.40;;;29.10;99.90;;;;;;4972296;28;20265;-49
2022/08/12 01:44:07;;;;;;;10.63;4.45;;;29.10;99.90;;;;;;4972432;28;20061;-49
2022/08/12 01:46:36;;;;;;;16.58;5.45;;;29.10;99.90;;;;;;4972490;28;20069;-49
2022/08/12 01:49:20;;;;;;;11.30;4.85;;;29.10;99.90;;;;;;4972362;28;20491;-49
2022/08/12 01:51:54;;;;;;;12.50;5.18;;;29.10;99.90;;;;;;4972218;28;20039;-48
2022/08/12 01:54:21;;;;;;;11.52;4.57;;;29.10;99.90;;;;;;4987090;28;20446;-49
2022/08/12 01:56:54;;;;;;;11.27;4.70;;;29.10;99.90;;;;;;4972216;28;20488;-49
2022/08/12 01:59:48;;;;;;;9.40;4.40;;;29.10;99.90;;;;;;4972859;28;20029;-48
2022/08/12 02:02:18;;;;;;;11.52;4.63;;;29.10;99.90;;;;;;4976035;28;20049;-49
2022/08/12 02:11:22;;;;;;;10.95;4.78;;;29.10;99.90;;;;;;4975884;28;20042;-49
2022/08/12 02:14:11;;;;;;;12.65;6.43;;;29.10;99.90;;;;;;4975693;28;20161;-49
2022/08/12 02:16:57;;;;;;;16.83;5.30;;;29.10;99.90;;;;;;4975784;28;20052;-49
2022/08/12 02:19:45;;;;;;;11.13;4.20;;;29.10;99.90;;;;;;4975874;28;20026;-49
2022/08/12 02:22:32;;;;;;;11.63;4.75;;;29.00;99.90;;;;;;4975715;28;20060;-49
2022/08/12 02:25:09;;;;;;;11.80;4.50;;;29.00;99.90;;;;;;4975493;28;20027;-49
2022/08/12 02:27:51;;;;;;;18.65;5.90;;;29.00;99.90;;;;;;4975456;28;20500;-49
2022/08/12 02:30:22;;;;;;;10.23;5.05;;;29.00;99.90;;;;;;4975316;28;20432;-49
2022/08/12 02:32:50;;;;;;;11.95;5.15;;;28.90;99.90;;;;;;4975485;28;20483;-49
2022/08/12 02:35:21;;;;;;;10.02;4.40;;;28.90;99.90;;;;;;4990293;28;20058;-49
2022/08/12 02:37:51;;;;;;;14.68;5.25;;;28.90;99.90;;;;;;4990367;28;20037;-49
2022/08/12 02:40:18;;;;;;;9.70;5.53;;;28.90;99.90;;;;;;4975214;28;20030;-49
2022/08/12 02:42:57;;;;;;;15.65;5.25;;;28.90;99.90;;;;;;4975180;28;20506;-49
2022/08/12 02:45:38;;;;;;;12.80;5.65;;;28.90;99.90;;;;;;4975242;28;20380;-49
2022/08/12 02:48:14;;;;;;;17.55;5.47;;;28.80;99.90;;;;;;4975203;28;20070;-49
2022/08/12 02:50:45;;;;;;;14.30;5.38;;;28.80;99.90;;;;;;4975059;28;20027;-49
2022/08/12 02:53:12;;;;;;;15.23;5.75;;;28.80;99.90;;;;;;4975183;28;20050;-49
2022/08/12 02:55:38;;;;;;;19.10;5.83;;;28.80;99.90;;;;;;4974035;28;20719;-49
2022/08/12 02:58:08;;;;;;;8.50;4.45;;;28.80;99.90;;;;;;4975219;28;20447;-48
2022/08/12 03:00:36;;;;;;;12.88;5.13;;;28.80;99.90;;;;;;4975497;28;20524;-49
2022/08/12 03:03:06;;;;;;;12.98;5.90;;;28.80;99.90;;;;;;4974941;28;20026;-49
2022/08/12 03:05:37;;;;;;;10.98;5.10;;;28.80;99.90;;;;;;4974824;28;20080;-49
2022/08/12 03:08:08;;;;;;;10.20;5.28;;;28.70;99.90;;;;;;4974697;28;20042;-49
2022/08/12 03:10:40;;;;;;;9.50;4.80;;;28.80;99.90;;;;;;4974593;28;20027;-50
2022/08/12 03:13:08;;;;;;;15.02;4.50;;;28.80;99.90;;;;;;4974009;28;20098;-48
2022/08/12 03:15:35;;;;;;;11.52;5.38;;;28.90;99.90;;;;;;4974452;28;20055;-49
2022/08/12 03:18:18;;;;;;;15.27;5.63;;;28.80;99.90;;;;;;4989392;28;20550;-49
2022/08/12 03:20:45;;;;;;;11.30;4.63;;;28.80;99.90;;;;;;4974556;28;20468;-49
2022/08/12 03:23:12;;;;;;;;;;;28.80;99.90;;;;;;4973753;28;20027;-49
2022/08/12 03:25:39;;;;;;;10.00;4.30;;;28.80;99.90;;;;;;4974721;28;19906;-49
2022/08/12 03:28:48;;;;;;;12.93;4.53;;;28.80;99.90;;;;;;4974402;28;20530;-50
2022/08/12 03:31:01;;;;;;;10.38;4.45;;;28.80;99.90;;;;;;4974403;28;20062;-49
2022/08/12 03:33:33;;;;;;;12.20;4.78;;;28.70;99.90;;;;;;4974246;28;20487;-49
2022/08/12 03:36:02;;;;;;;17.13;5.72;;;28.80;99.90;;;;;;4974351;28;20030;-49
2022/08/12 03:38:31;;;;;;;9.32;4.32;;;28.70;99.90;;;;;;4974471;28;20391;-49
2022/08/12 04:00:50;;;;;;;9.93;3.83;;;28.80;99.90;;;;;;4974795;28;20054;-49
2022/08/12 04:06:01;;;;;;;10.07;4.78;;;28.90;99.90;;;;;;4972885;28;20380;-49
2022/08/12 04:08:27;;;;;;;14.15;4.45;;;28.80;99.90;;;;;;4973735;28;20031;-49
2022/08/12 04:13:39;;;;;;;12.48;4.93;;;28.80;99.90;;;;;;4973858;28;20118;-49
2022/08/12 04:16:09;;;;;;;10.30;5.38;;;28.80;99.90;;;;;;4973455;28;20495;-49
2022/08/12 04:18:37;;;;;;;14.23;4.18;;;28.80;99.90;;;;;;4988421;28;20075;-48
2022/08/12 04:21:08;;;;;;;10.20;4.10;;;28.80;99.90;;;;;;4988576;28;20026;-49
2022/08/12 04:23:37;;;;;;;17.45;5.55;;;28.90;99.90;;;;;;4973204;28;20088;-49
2022/08/12 04:26:04;;;;;;;13.13;5.45;;;28.90;99.90;;;;;;4973392;28;20022;-49
2022/08/12 04:28:30;;;;;;;10.00;5.30;;;28.80;99.90;;;;;;4973402;28;20479;-50
2022/08/12 04:30:56;;;;;;;19.58;6.18;;;28.90;99.90;;;;;;4973218;28;20041;-49
2022/08/12 04:33:23;;;;;;;13.52;5.95;;;28.80;99.90;;;;;;4973358;28;20150;-50
2022/08/12 04:35:48;;;;;;;12.48;5.40;;;28.80;99.90;;;;;;4973354;28;20026;-49
2022/08/12 04:38:16;;;;;;;14.25;4.75;;;28.80;99.90;;;;;;4973380;28;20027;-49
2022/08/12 04:40:45;;;;;;;15.60;5.60;;;28.70;99.90;;;;;;4973197;28;20070;-49
2022/08/12 04:43:11;;;;;;;10.90;5.70;;;28.70;99.90;;;;;;4973447;28;20444;-49
2022/08/12 04:45:38;;;;;;;16.88;5.70;;;28.70;99.90;;;;;;4973016;28;20037;-49
2022/08/12 04:48:05;;;;;;;15.98;5.55;;;28.80;99.90;;;;;;4973131;28;20026;-49
2022/08/12 04:50:31;;;;;;;13.55;5.72;;;28.80;99.90;;;;;;4973085;28;20103;-49
2022/08/12 04:53:01;;;;;;;10.77;5.50;;;28.80;99.90;;;;;;4973012;28;20041;-49
2022/08/12 04:55:27;;;;;;;22.15;5.88;;;28.90;99.90;;;;;;4973071;28;20102;-49
2022/08/12 04:57:54;;;;;;;8.53;4.63;;;28.80;99.90;;;;;;4972940;28;20081;-49
2022/08/12 05:00:20;;;;;;;15.15;5.38;;;28.90;99.90;;;;;;4972744;28;20047;-49
2022/08/12 05:02:46;;;;;;;11.35;5.38;;;28.90;99.90;;;;;;4972927;28;20558;-49
2022/08/12 05:05:21;;;;;;;11.63;4.90;;;28.90;99.90;;;;;;4973048;28;20030;-49
2022/08/12 05:07:48;;;;;;;14.68;5.35;;;28.90;99.90;;;;;;4972569;28;20050;-49
2022/08/12 05:10:16;;;;;;;14.27;5.53;;;28.90;99.90;;;;;;4972738;28;20061;-49
2022/08/12 05:12:46;;;;;;;14.95;4.90;;;28.90;99.90;;;;;;4972676;28;20090;-49
2022/08/12 05:15:15;;;;;;;18.05;6.53;;;28.80;99.90;;;;;;4971547;28;20043;-49
2022/08/12 05:17:43;;;;;;;10.10;4.82;;;28.80;99.90;;;;;;4972519;28;20023;-49
2022/08/12 05:20:14;;;;;;;14.43;4.80;;;28.70;99.90;;;;;;4972628;28;20026;-48
2022/08/12 05:22:44;;;;;;;14.85;5.00;;;28.70;99.90;;;;;;4971317;28;20127;-49
2022/08/12 05:25:10;;;;;;;16.15;4.95;;;28.70;99.90;;;;;;4972621;28;20046;-48
2022/08/12 05:27:38;;;;;;;22.23;7.57;;;28.70;99.90;;;;;;4972167;28;20074;-48
2022/08/12 05:30:05;;;;;;;10.35;4.88;;;28.70;99.90;;;;;;4972422;28;20023;-48
2022/08/12 05:32:31;;;;;;;14.43;5.85;;;28.70;99.90;;;;;;4972445;28;20384;-48
2022/08/12 05:34:57;;;;;;;10.77;4.47;;;28.70;99.90;;;;;;4975238;28;20029;-48
2022/08/12 05:37:23;;;;;;;12.63;5.20;;;28.70;99.90;;;;;;4978703;28;20492;-48
2022/08/12 05:39:49;;;;;;;20.55;4.97;;;28.80;99.90;;;;;;4978947;28;20038;-48
2022/08/12 05:42:15;;;;;;;16.63;5.20;;;28.80;99.90;;;;;;4978908;28;20411;-49
2022/08/12 05:44:41;;;;;;;11.20;4.85;;;28.80;99.90;;;;;;4978797;28;20388;-49
2022/08/12 05:47:07;;;;;;;13.75;5.22;;;28.80;99.90;;;;;;4978460;28;20042;-49
2022/08/12 05:49:33;;;;;;;18.05;5.82;;;28.80;99.90;;;;;;4978711;28;20030;-49
2022/08/12 05:52:01;;;;;;;15.70;5.10;;;28.80;99.90;;;;;;4978699;28;20030;-48
2022/08/12 05:54:27;;;;;;;13.15;5.72;;;28.80;99.90;;;;;;4978716;28;20081;-48
2022/08/12 05:56:53;;;;;;;12.15;5.97;;;28.80;99.90;;;;;;4978511;28;20031;-48
2022/08/12 05:59:20;;;;;;;10.10;5.63;;;28.80;99.90;;;;;;4978538;28;20043;-49
2022/08/12 06:01:46;;;;;;;;;;;28.80;99.90;;;;;;4978861;28;20054;-48
2022/08/12 06:04:13;;;;;;;13.15;6.15;;;28.80;99.90;;;;;;4978577;28;19906;-48
2022/08/12 06:06:42;;;;;;;19.60;7.88;;;28.80;99.90;;;;;;4978440;28;20045;-48
2022/08/12 06:09:09;;;;;;;22.75;6.93;;;28.80;99.90;;;;;;4978917;28;20034;-48
2022/08/12 06:11:35;;;;;;;;;;;28.80;99.90;;;;;;4978885;28;20034;-48
2022/08/12 06:14:02;;;;;;;21.53;6.70;;;28.80;99.90;;;;;;4978411;28;19913;-48
2022/08/12 06:16:27;;;;;;;15.52;6.90;;;28.80;99.90;;;;;;4977202;28;20031;-48
2022/08/12 06:18:53;;;;;;;21.55;7.38;;;28.80;99.90;;;;;;4978238;28;20033;-49
2022/08/12 06:21:22;;;;;;;20.20;6.18;;;28.80;99.90;;;;;;4978631;28;20018;-49
2022/08/12 06:23:48;;;;;;;17.25;5.95;;;28.80;99.90;;;;;;4978472;28;20452;-49
2022/08/12 06:26:17;;;;;;;18.35;6.78;;;28.80;99.90;;;;;;4978284;28;20058;-49
2022/08/12 06:28:44;;;;;;;14.52;5.82;;;28.70;99.90;;;;;;4978186;28;20023;-49
2022/08/12 06:31:15;;;;;;;14.37;6.17;;;28.80;99.90;;;;;;4978139;28;20033;-49
2022/08/12 06:33:46;;;;;;;19.88;6.57;;;28.80;99.90;;;;;;4978211;28;20641;-49
2022/08/12 06:36:13;;;;;;;18.15;5.75;;;28.80;99.90;;;;;;4978394;28;20429;-50
2022/08/12 06:38:39;;;;;;;;;;;28.80;99.90;;;;;;4978464;28;20026;-49
2022/08/12 06:43:52;;;;;;;18.80;5.95;;;28.80;99.90;;;;;;4978737;28;20046;-49
2022/08/12 06:46:22;;;;;;;15.63;5.45;;;28.80;99.90;;;;;;4976903;28;20082;-49
2022/08/12 06:48:55;;;;;;;15.55;5.60;;;28.80;99.90;;;;;;4975139;28;20027;-49
2022/08/12 06:51:25;;;;;;;20.27;9.23;;;28.80;99.90;;;;;;4975074;28;20031;-50
2022/08/12 06:53:51;;;;;;;12.48;5.07;;;28.80;99.90;;;;;;4975039;28;20030;-49
2022/08/12 06:56:17;;;;;;;14.32;7.13;;;28.80;99.90;;;;;;4989819;28;20384;-49
2022/08/12 06:58:43;;;;;;;11.13;5.50;;;28.80;99.90;;;;;;4974952;28;20041;-50
2022/08/12 07:01:10;;;;;;;8.95;5.45;;;28.90;99.90;;;;;;4974835;28;20082;-50
2022/08/12 07:03:37;;;;;;;12.75;5.00;;;28.90;99.90;;;;;;4974749;28;20026;-49
2022/08/12 07:06:06;;;;;;;11.18;5.00;;;28.90;99.90;;;;;;4974705;28;20106;-50
2022/08/12 07:08:33;;;;;;;11.07;4.15;;;28.90;99.90;;;;;;4974868;28;20097;-49
2022/08/12 07:11:00;;;;;;;;;;;28.90;99.90;;;;;;4975360;28;20019;-49
2022/08/12 07:13:27;;;;;;;10.90;4.38;;;28.90;99.90;;;;;;4974842;28;20408;-50
2022/08/12 07:15:55;;;;;;;11.75;5.00;;;28.90;99.90;;;;;;4975010;28;20038;-50
2022/08/12 07:18:28;;;;;;;12.55;5.88;;;28.80;99.90;;;;;;4974798;28;20479;-49
2022/08/12 07:20:53;;;;;;;13.65;4.95;;;28.90;99.90;;;;;;4974849;28;20035;-49
2022/08/12 07:23:19;;;;;;;8.20;3.88;;;28.90;99.90;;;;;;4974419;28;20023;-50
2022/08/12 07:25:45;;;;;;;11.90;4.72;;;28.90;99.90;;;;;;4974419;28;20035;-50
2022/08/12 07:28:17;;;;;;;14.02;4.93;;;28.90;99.90;;;;;;4974246;28;20073;-50
2022/08/12 07:30:47;;;;;;;12.02;4.65;;;28.90;99.90;;;;;;4974463;28;20015;-50
2022/08/12 07:33:14;;;;;;;15.77;5.10;;;29.00;99.90;;;;;;4974455;28;20031;-50
2022/08/12 07:35:46;;;;;;;12.90;4.82;;;29.00;99.90;;;;;;4974336;28;20031;-49
2022/08/12 07:38:42;;;;;;;10.77;4.68;;;29.00;99.90;;;;;;4974075;28;20023;-50
2022/08/12 07:41:21;;;;;;;9.43;4.63;;;29.00;99.90;;;;;;4974148;28;20054;-50
2022/08/12 07:43:47;;;;;;;9.60;4.85;;;29.00;99.90;;;;;;4974004;28;20049;-50
2022/08/12 07:46:16;;;;;;;8.98;4.97;;;29.00;99.90;;;;;;4974031;28;20506;-50
2022/08/12 07:48:51;;;;;;;11.32;5.38;;;29.00;99.90;;;;;;4973973;28;20037;-50
2022/08/12 07:51:18;;;;;;;14.27;5.82;;;29.10;99.90;;;;;;4973937;28;20027;-50
2022/08/12 07:53:45;;;;;;;11.88;6.32;;;29.10;99.90;;;;;;4973798;28;20391;-49
2022/08/12 07:56:11;;;;;;;16.20;7.37;;;29.10;99.90;;;;;;4973963;28;20060;-50
2022/08/12 07:58:39;;;;;;;18.88;7.32;;;29.20;99.90;;;;;;4973337;28;20395;-49
2022/08/12 08:01:14;;;;;;;14.18;6.40;;;29.20;99.90;;;;;;4988510;28;20046;-50
2022/08/12 08:06:32;;;;;;;12.55;6.07;;;29.30;99.90;;;;;;4981473;28;20079;-49
2022/08/12 08:08:59;;;;;;;14.17;6.57;;;29.30;99.90;;;;;;4973883;28;20085;-49
2022/08/12 08:14:10;;;;;;;11.52;5.45;;;29.40;99.90;;;;;;4973762;28;20545;-49
2022/08/12 08:16:39;;;;;;;17.63;8.30;;;29.40;99.90;;;;;;4973596;28;20034;-50
2022/08/12 08:19:06;;;;;;;17.92;7.60;;;29.50;99.90;;;;;;4973448;28;20022;-50
2022/08/12 08:21:34;;;;;;;11.95;5.47;;;29.50;99.90;;;;;;4988394;28;20089;-50
2022/08/12 08:24:15;;;;;;;12.95;6.05;;;29.50;99.90;;;;;;4973398;28;20018;-50
2022/08/12 08:26:47;;;;;;;10.50;5.25;;;29.60;99.90;;;;;;4973249;28;20483;-50
2022/08/12 08:29:15;;;;;;;16.58;6.40;;;29.60;99.90;;;;;;4973378;28;20033;-50
2022/08/12 08:31:42;;;;;;;17.00;6.15;;;29.70;99.90;;;;;;4973526;28;20103;-50
2022/08/12 08:34:12;;;;;;;14.43;5.43;;;29.70;99.90;;;;;;4973095;28;20502;-50
2022/08/12 08:36:38;;;;;;;13.68;6.35;;;29.70;99.90;;;;;;4971927;28;20035;-50
2022/08/12 08:39:05;;;;;;;22.07;6.30;;;29.80;99.90;;;;;;4973061;28;20054;-50
2022/08/12 08:44:15;;;;;;;12.73;6.30;;;29.80;99.90;;;;;;4972945;28;20042;-49
2022/08/12 08:46:43;;;;;;;19.00;6.63;;;29.80;99.90;;;;;;4987810;28;20035;-50
2022/08/12 08:49:10;;;;;;;18.40;6.05;;;29.80;99.90;;;;;;4972887;28;20479;-50
2022/08/12 08:51:37;;;;;;;19.80;7.65;;;29.80;99.90;;;;;;4972886;28;20031;-49
2022/08/12 08:54:05;;;;;;;12.10;4.95;;;29.80;99.90;;;;;;4972750;28;20089;-50
2022/08/12 08:56:32;;;;;;;10.85;5.72;;;29.80;99.90;;;;;;4972953;28;20034;-49
2022/08/12 08:58:58;;;;;;;9.90;4.35;;;29.80;99.90;;;;;;4972800;28;20019;-50
2022/08/12 09:01:25;;;;;;;11.57;5.00;;;29.80;99.90;;;;;;4972489;28;20074;-50
2022/08/12 09:03:51;;;;;;;13.60;5.50;;;29.80;99.90;;;;;;4972465;28;20265;-50
2022/08/12 09:06:19;;;;;;;11.70;5.28;;;29.80;99.90;;;;;;4972620;28;20055;-50
2022/08/12 09:08:45;;;;;;;10.52;5.90;;;29.90;99.90;;;;;;4972229;28;20038;-50
2022/08/12 09:13:55;;;;;;;20.10;6.10;;;30.00;99.90;;;;;;4972593;28;20165;-50
2022/08/12 09:16:21;;;;;;;14.40;7.65;;;30.00;99.90;;;;;;4972250;28;20495;-50
2022/08/12 09:18:47;;;;;;;11.00;7.00;;;30.00;99.90;;;;;;4972261;28;20463;-50
2022/08/12 09:21:13;;;;;;;13.95;5.35;;;30.00;99.90;;;;;;4972418;28;20472;-50
2022/08/12 09:23:40;;;;;;;15.02;5.65;;;30.00;99.90;;;;;;4972375;28;20050;-49
2022/08/12 09:26:08;;;;;;;10.27;4.80;;;30.10;99.90;;;;;;4972480;28;20066;-49
2022/08/12 09:28:34;;;;;;;14.20;5.88;;;30.10;99.90;;;;;;4972359;28;20045;-49
2022/08/12 09:31:00;;;;;;;11.60;5.75;;;30.10;99.90;;;;;;4972500;28;20019;-49
2022/08/12 09:33:32;;;;;;;17.47;5.93;;;30.10;99.90;;;;;;4972356;28;20037;-48
2022/08/12 09:35:59;;;;;;;10.30;4.95;;;30.10;99.90;;;;;;4972080;28;20033;-49
2022/08/12 09:38:28;;;;;;;;;;;30.20;99.90;;;;;;4987370;28;20027;-49
2022/08/12 09:40:53;;;;;;;10.13;5.10;;;30.30;99.90;;;;;;4972067;28;19933;-49
2022/08/12 09:46:03;;;;;;;10.02;4.28;;;30.20;99.90;;;;;;4972268;28;20064;-49
2022/08/12 09:48:31;;;;;;;9.45;4.65;;;30.20;99.90;;;;;;4971875;28;20038;-49
2022/08/12 09:50:57;;;;;;;13.32;4.88;;;30.20;99.90;;;;;;4971948;28;20037;-49
2022/08/12 09:53:24;;;;;;;10.48;4.20;;;30.30;99.90;;;;;;4972051;28;20426;-49
2022/08/12 09:55:53;;;;;;;11.15;4.40;;;30.30;99.90;;;;;;4970849;28;20054;-49
2022/08/12 09:58:31;;;;;;;11.25;3.95;;;30.30;99.90;;;;;;4971972;28;20498;-50
2022/08/12 10:01:00;;;;;;;13.70;3.92;;;30.30;99.90;;;;;;4971633;28;20097;-50
2022/08/12 10:03:30;;;;;;;8.93;3.80;;;30.30;99.90;;;;;;4972045;28;20392;-49
2022/08/12 10:05:57;;;;;;;10.15;4.00;;;30.30;99.90;;;;;;4971948;28;20022;-50
2022/08/12 10:08:26;;;;;;;7.53;4.78;;;30.30;99.90;;;;;;4971600;28;20578;-49
2022/08/12 10:13:41;;;;;;;15.15;6.03;;;30.40;99.90;;;;;;4972060;28;20209;-49
2022/08/12 10:16:18;;;;;;;11.93;4.53;;;30.40;99.90;;;;;;4971827;28;20023;-48
2022/08/12 10:18:48;;;;;;;;;;;30.40;99.90;;;;;;4987204;28;20407;-50
2022/08/12 10:21:35;;;;;;;8.57;3.88;;;30.60;99.90;;;;;;4973260;28;19906;-50
2022/08/12 10:24:15;;;;;;;;;;;30.60;99.90;;;;;;4975647;28;20031;-49
2022/08/12 10:29:43;;;;;;;11.70;4.38;;;30.70;99.90;;;;;;4975676;28;20081;-49
2022/08/12 10:32:15;;;;;;;10.20;4.00;;;30.70;99.90;;;;;;4975334;28;20027;-49
2022/08/12 10:34:42;;;;;;;11.35;3.50;;;30.70;99.90;;;;;;4975206;28;20078;-49
2022/08/12 10:37:07;;;;;;;12.43;3.73;;;30.70;99.90;;;;;;4975394;28;20033;-49
2022/08/12 10:39:38;;;;;;;8.55;4.30;;;30.70;99.90;;;;;;4975405;28;20340;-50
2022/08/12 10:44:59;;;;;;;9.48;3.80;;;30.80;99.90;;;;;;4974997;28;20030;-49
2022/08/12 10:47:27;;;;;;;8.30;4.25;;;30.80;99.90;;;;;;4975176;28;20371;-48
2022/08/12 10:49:53;;;;;;;8.43;3.63;;;30.80;99.90;;;;;;4975122;28;20152;-49
2022/08/12 10:52:23;;;;;;;11.80;3.90;;;30.80;99.90;;;;;;4989841;28;20436;-50
2022/08/12 10:54:49;;;;;;;8.85;3.28;;;30.80;99.90;;;;;;4974770;28;20428;-50
2022/08/12 10:57:16;;;;;;;14.70;4.07;;;30.70;99.90;;;;;;4974870;28;20054;-49
2022/08/12 10:59:42;;;;;;;9.05;4.00;;;30.70;99.90;;;;;;4974624;28;20418;-49
2022/08/12 11:02:12;;;;;;;8.55;3.50;;;30.70;99.90;;;;;;4974833;28;20033;-49
2022/08/12 11:04:39;;;;;;;7.13;3.83;;;30.80;99.90;;;;;;4974771;28;20494;-50
2022/08/12 11:07:06;;;;;;;6.50;3.50;;;30.80;99.90;;;;;;4974765;28;20062;-49
2022/08/12 11:09:33;;;;;;;9.23;3.60;;;30.90;99.90;;;;;;4974363;28;20391;-50
2022/08/12 11:12:04;;;;;;;6.63;3.55;;;30.90;99.90;;;;;;4974569;28;20038;-50
2022/08/12 11:14:31;;;;;;;11.80;4.28;;;30.90;99.90;;;;;;4974560;28;20105;-49
2022/08/12 11:16:58;;;;;;;7.15;3.63;;;31.00;99.90;;;;;;4989204;28;20062;-49
2022/08/12 11:19:25;;;;;;;9.68;3.83;;;31.00;99.90;;;;;;4974389;28;20027;-49
2022/08/12 11:21:52;;;;;;;9.88;4.05;;;31.00;99.90;;;;;;4974366;28;20506;-49
2022/08/12 11:24:18;;;;;;;8.23;3.67;;;31.10;99.90;;;;;;4974278;28;20467;-48
2022/08/12 11:26:45;;;;;;;9.33;3.40;;;31.20;99.90;;;;;;4974126;28;20118;-50
2022/08/12 11:29:10;;;;;;;7.03;3.20;;;31.20;99.90;;;;;;4974361;28;20031;-49
2022/08/12 11:31:36;;;;;;;9.43;3.72;;;31.20;99.90;;;;;;4974253;28;20094;-49
2022/08/12 11:34:02;;;;;;;9.95;3.53;;;31.30;99.90;;;;;;4973255;28;20058;-48
2022/08/12 11:36:28;;;;;;;9.63;3.70;;;31.30;99.90;;;;;;4973747;28;20034;-49
2022/08/12 11:38:54;;;;;;;8.07;3.40;;;31.30;99.90;;;;;;4973806;28;20082;-50
2022/08/12 11:41:20;;;;;;;13.70;4.45;;;31.30;99.90;;;;;;4973723;28;20037;-50
2022/08/12 11:43:46;;;;;;;12.30;3.75;;;31.30;99.90;;;;;;4973837;28;20050;-50
2022/08/12 11:46:12;;;;;;;8.00;3.92;;;31.30;99.90;;;;;;4973889;28;20089;-49
2022/08/12 11:48:39;;;;;;;9.57;3.22;;;31.30;99.90;;;;;;4973794;28;20093;-49
2022/08/12 11:51:08;;;;;;;12.07;3.70;;;31.30;99.90;;;;;;4973760;28;20023;-49
2022/08/12 11:53:34;;;;;;;10.95;3.83;;;31.30;99.90;;;;;;4973565;28;20050;-49
2022/08/12 11:56:01;;;;;;;8.35;4.05;;;31.40;99.90;;;;;;4973659;28;20027;-49
2022/08/12 11:58:27;;;;;;;10.10;4.60;;;31.40;99.90;;;;;;4973426;28;20078;-49
2022/08/12 12:00:52;;;;;;;9.77;4.00;;;31.40;99.90;;;;;;4972191;28;20451;-49
2022/08/12 12:03:19;;;;;;;10.63;4.55;;;31.30;99.90;;;;;;4973350;28;20038;-49
2022/08/12 12:05:44;;;;;;;6.38;3.47;;;31.30;99.90;;;;;;4973529;28;20041;-49
2022/08/12 12:08:30;;;;;;;11.35;4.45;;;31.30;99.90;;;;;;4973596;28;20043;-49
2022/08/12 12:10:56;;;;;;;12.33;4.20;;;31.30;99.90;;;;;;4972966;28;20041;-49
2022/08/12 12:13:22;;;;;;;7.10;3.67;;;31.20;99.90;;;;;;4973405;28;20386;-49
2022/08/12 12:15:48;;;;;;;7.90;3.63;;;31.20;99.90;;;;;;4973225;28;20602;-50
2022/08/12 12:18:25;;;;;;;5.88;3.13;;;31.20;99.90;;;;;;4973327;28;20419;-49
2022/08/12 12:20:52;;;;;;;;;;;31.20;99.90;;;;;;4973558;28;20034;-49
2022/08/12 12:23:18;;;;;;;9.60;4.78;;;31.20;99.90;;;;;;4972960;28;19952;-50
2022/08/12 12:25:44;;;;;;;8.35;3.63;;;31.20;99.90;;;;;;4973207;28;20126;-49
2022/08/12 12:28:10;;;;;;;9.77;3.80;;;31.20;99.90;;;;;;4972828;28;20522;-49
2022/08/12 12:30:36;;;;;;;9.82;3.85;;;31.20;99.90;;;;;;4970963;28;20447;-51
2022/08/12 12:33:04;;;;;;;10.40;4.45;;;31.20;99.90;;;;;;4970888;28;20027;-49
2022/08/12 12:35:30;;;;;;;11.98;4.40;;;31.30;99.90;;;;;;4972246;28;20455;-49
2022/08/12 12:38:01;;;;;;;17.52;7.97;;;31.30;99.90;;;;;;4969765;28;20035;-49
2022/08/12 12:40:28;;;;;;;13.63;5.30;;;31.40;99.90;;;;;;4958623;28;20062;-49
2022/08/12 12:42:54;;;;;;;9.18;4.88;;;31.40;99.90;;;;;;4958497;28;20133;-49
2022/08/12 12:45:20;;;;;;;9.10;3.50;;;31.40;99.90;;;;;;4970886;28;20054;-50
2022/08/12 12:47:56;;;;;;;9.05;3.50;;;31.50;99.90;;;;;;4971506;28;20038;-49
2022/08/12 12:50:26;;;;;;;8.95;3.63;;;31.60;99.90;;;;;;4971113;28;20062;-49
2022/08/12 12:52:52;;;;;;;7.60;4.03;;;31.60;99.90;;;;;;4967250;28;20031;-49
2022/08/12 12:55:20;;;;;;;8.70;2.88;;;31.70;99.90;;;;;;4974377;28;20015;-49
2022/08/12 12:57:45;;;;;;;11.55;3.60;;;31.70;99.90;;;;;;4961293;28;20098;-49
2022/08/12 13:00:13;;;;;;;7.28;3.95;;;31.70;99.90;;;;;;4958482;28;20047;-49
2022/08/12 13:02:40;;;;;;;16.95;4.68;;;31.80;99.90;;;;;;4967716;28;20440;-49
2022/08/12 13:05:07;;;;;;;12.20;4.03;;;31.90;99.90;;;;;;4971010;28;20029;-50
2022/08/12 13:07:40;;;;;;;8.10;2.93;;;31.90;99.90;;;;;;4970773;28;20043;-49
2022/08/12 13:10:06;;;;;;;6.18;4.38;;;31.90;99.90;;;;;;4969298;28;20035;-51
2022/08/12 13:12:33;;;;;;;8.53;3.53;;;32.00;99.90;;;;;;4971216;28;20022;-49
2022/08/12 13:15:01;;;;;;;6.57;3.88;;;32.00;99.90;;;;;;4970989;28;20010;-49
2022/08/12 13:17:30;;;;;;;17.60;6.10;;;32.10;99.90;;;;;;4965548;28;20452;-51
2022/08/12 13:20:04;;;;;;;9.32;5.78;;;32.10;99.90;;;;;;4968409;28;20030;-50
2022/08/12 13:22:31;;;;;;;9.32;3.80;;;32.20;99.90;;;;;;4970105;28;20031;-50
2022/08/12 13:24:58;;;;;;;7.38;3.63;;;32.20;99.90;;;;;;4970932;28;20027;-51
2022/08/12 13:27:28;;;;;;;7.57;3.38;;;32.20;99.90;;;;;;4968545;28;20042;-50
2022/08/12 13:29:56;;;;;;;6.68;3.60;;;32.20;99.90;;;;;;4970544;28;20076;-51
2022/08/12 13:32:22;;;;;;;10.57;3.95;;;32.20;99.90;;;;;;4970691;28;20109;-51
2022/08/12 13:34:52;;;;;;;7.30;3.13;;;32.20;99.90;;;;;;4971081;28;20030;-50
2022/08/12 13:37:25;;;;;;;7.65;3.25;;;32.20;99.90;;;;;;4985558;28;20061;-50
2022/08/12 13:39:51;;;;;;;7.07;3.20;;;32.40;99.90;;;;;;4952938;28;20118;-51
2022/08/12 13:42:21;;;;;;;6.20;3.38;;;32.40;99.90;;;;;;4971124;28;20026;-53
2022/08/12 13:44:52;;;;;;;8.07;3.50;;;32.40;99.90;;;;;;4968248;28;20015;-52
2022/08/12 13:47:20;;;;;;;7.50;5.18;;;32.40;99.90;;;;;;4970265;28;20034;-51
2022/08/12 13:49:48;;;;;;;11.05;7.35;;;32.50;99.90;;;;;;4968968;28;20057;-51
2022/08/12 13:52:17;;;;;;;9.68;5.55;;;32.50;99.90;;;;;;4970335;28;20497;-51
2022/08/12 13:54:46;;;;;;;10.40;6.38;;;32.50;99.90;;;;;;4970444;28;20107;-50
2022/08/12 13:57:14;;;;;;;8.15;5.05;;;32.60;99.90;;;;;;4973694;28;20130;-50
2022/08/12 13:59:41;;;;;;;6.85;3.42;;;32.50;99.90;;;;;;4973861;28;20022;-49
2022/08/12 14:02:12;;;;;;;9.40;3.72;;;32.60;99.90;;;;;;4974569;28;20150;-49
2022/08/12 14:04:39;;;;;;;9.07;3.83;;;32.60;99.90;;;;;;4972310;28;20027;-49
2022/08/12 14:07:06;;;;;;;8.48;3.60;;;32.60;99.90;;;;;;4956069;28;20449;-50
2022/08/12 14:10:35;;;;;;;7.78;3.13;;;32.60;99.90;;;;;;4969179;28;20031;-50
2022/08/12 14:12:20;;;;;;;11.60;4.80;;;32.60;99.90;;;;;;4956259;28;20027;-50
2022/08/12 14:14:49;;;;;;;6.38;3.60;;;32.60;99.90;;;;;;4956147;28;20035;-51
2022/08/12 14:17:16;;;;;;;6.68;3.25;;;32.60;99.90;;;;;;4956182;28;20032;-49
2022/08/12 14:20:12;;;;;;;;;;;32.60;99.90;;;;;;4956530;28;20579;-50
2022/08/12 14:22:28;;;;;;;4.57;3.30;;;32.50;99.90;;;;;;4956016;28;19902;-51
2022/08/12 14:24:57;;;;;;;5.87;3.33;;;32.40;99.90;;;;;;4956138;28;20880;-50
2022/08/12 14:27:26;;;;;;;6.10;3.25;;;32.40;99.90;;;;;;4956126;28;20045;-50
2022/08/12 14:29:52;;;;;;;6.82;3.13;;;32.40;99.90;;;;;;4988072;28;20027;-51
2022/08/12 14:32:18;;;;;;;6.57;3.50;;;32.30;99.90;;;;;;4974671;28;20515;-51
2022/08/12 14:34:50;;;;;;;6.97;3.35;;;32.40;99.90;;;;;;4958000;28;20031;-51
2022/08/12 14:37:17;;;;;;;9.30;4.30;;;32.40;99.90;;;;;;4971258;28;20364;-49
2022/08/12 14:39:43;;;;;;;;;;;32.40;99.90;;;;;;4973708;28;20554;-50
2022/08/12 14:42:09;;;;;;;8.07;3.83;;;32.40;99.90;;;;;;4972353;28;19990;-51